Terminal Aerodrome Forecast
Issued by NWS Wilmington, OH

Current Version | Previous Version | Graphics & Text | Print | Product List | Glossary On
Versions: 1 2 3 4 5 6 7 8 9 10 11 12 13 14 15 16
000
FTUS41 KILN 231127
TAFDAY
TAF
KDAY 231127Z 2312/2412 10009KT P6SM SCT150
     FM231500 12010KT P6SM SCT100
     FM231700 13010G16KT P6SM BKN090
     FM240000 14008KT P6SM VCSH BKN070
     FM240500 17010KT P6SM BKN060 WS020/21045KT
     FM241100 21014G22KT P6SM BKN150 WS020/21045KT=

USA.gov is the U.S. government's official web portal to all federal, state and local government web resources and services.